Pagrindinis puslapis
METAR-TAF:

METAR-TAF

Oro uostai :

Voronežas, Rusija

platuma: 51-39N, ilguma: 039-15E, Aukštis: 154 m

Dabartinis oras

Ataskaita buvo paskelbta 27 minutes, ne 06:30 UTC
Vėjas 4 kt iš Šiaurės Rytų
Temperatūra -16°C
Drėgmė 78%
Slėgis 1016 hPa
Matomumas: 4100 m
Apsiniaukę ne aukštis 1200 ft
sniegas

METAR: UUOO 180630Z 05002MPS 4100 -SN OVC012 M16/M19 Q1016 R12/490239 NOSIG RMK QFE748

Laikas: 09:57 (06:57 UTC)

Prognozė

Ataskaita buvo paskelbta 1 valandą ir 57 minutes, ne 05:00 UTC
Prognozė galioja nuo 18 metu 06 UTC su 18 metu 15 UTC
Vėjas 6 kt iš Šiaurės Rytų
Matomumas: 3100 m
Apsiniaukę ne aukštis 700 ft
sniegas
Laikinai
nuo 18 metu 06 UTC su 18 metu 15 UTC
Matomumas: 1200 m
Apsiniaukę ne aukštis 400 ft
sniegas

TAF: UUOO 180500Z 1806/1815 04003MPS 3100 -SN OVC007 TEMPO 1806/1815 1200 SN OVC004

Orai ataskaitas ir orų prognozės (METAR, TAF).

turimą stotys yra geltonos ir raudonos taškus žemėlapyje.

Perkelti pele per norėdami pamatyti stoties vardą.

Tada spustelėkite, norėdami matyti oro stebėjimo ir prognozės.

Norėdami pakeisti žemėlapį: spustelėkite ant žalios mygtukų su juodo kryžiaus žemyn,; žalią mygtuką su brūkšneliu, jei norite nutolinti; arba žalių rodyklių gretimoms žemėlapius.


METAR-TAF: